This is the latest recevied weather packets stored in our database for station/object NL3D. If no packets are shown the sender has not sent any weather packets the latest 1 day(s).
| Time | Temp. | Humidity | Pressure | Rain* | Wind** | Luminosity | Snow |
|---|---|---|---|---|---|---|---|
| 1778039672 | 9.44° C | 50% | 1007.3 hPa | 0 mm | 1.34 m/s, 186° | 46 W/m² | - |
| 1778039368 | 10° C | 48% | 1007.2 hPa | 0 mm | 0.89 m/s, 110° | 59 W/m² | - |
| 1778039066 | 10° C | 48% | 1007.5 hPa | 0 mm | 2.24 m/s, 166° | 118 W/m² | - |
| 1778038762 | 10° C | 48% | 1007.3 hPa | 0 mm | 1.34 m/s, 73° | 115 W/m² | - |
| 1778038460 | 10° C | 47% | 1007.3 hPa | 0 mm | 1.79 m/s, 79° | 100 W/m² | - |
| 1778038157 | 10° C | 47% | 1007.1 hPa | 0 mm | 1.34 m/s, 11° | 138 W/m² | - |
| 1778037854 | 10° C | 48% | 1007.2 hPa | 0 mm | 1.34 m/s, 57° | 113 W/m² | - |
| 1778037550 | 10° C | 47% | 1007 hPa | 0 mm | 1.34 m/s, 299° | 124 W/m² | - |
| 1778037248 | 10° C | 47% | 1006.9 hPa | 0 mm | 3.13 m/s, 59° | 121 W/m² | - |
| 1778036945 | 10° C | 47% | 1007 hPa | 0 mm | 2.24 m/s, 147° | 135 W/m² | - |
| 1778036643 | 10° C | 48% | 1006.9 hPa | 0 mm | 4.02 m/s, 187° | 112 W/m² | - |
| 1778036339 | 10° C | 48% | 1007.1 hPa | 0 mm | 2.68 m/s, 66° | 131 W/m² | - |
| 1778036036 | 10° C | 48% | 1006.9 hPa | 0 mm | 0.89 m/s, 131° | 145 W/m² | - |
| 1778035733 | 10° C | 49% | 1007.1 hPa | 0 mm | 1.79 m/s, 244° | 191 W/m² | - |
| 1778035430 | 10° C | 49% | 1006.8 hPa | 0 mm | 0.45 m/s, 101° | 164 W/m² | - |
| 1778035126 | 10° C | 48% | 1006.9 hPa | 0 mm | 1.34 m/s, 164° | 172 W/m² | - |
| 1778034823 | 10° C | 49% | 1006.9 hPa | 0 mm | 0 m/s | 202 W/m² | - |
| 1778034520 | 10.56° C | 49% | 1006.9 hPa | 0 mm | 2.68 m/s, 143° | 202 W/m² | - |
| 1778034217 | 10.56° C | 48% | 1006.9 hPa | 0 mm | 1.34 m/s, 187° | 219 W/m² | - |
| 1778033916 | 10.56° C | 47% | 1006.9 hPa | 0 mm | 0.89 m/s, 89° | 196 W/m² | - |
| 1778033612 | 10.56° C | 47% | 1006.7 hPa | 0 mm | 0.89 m/s, 81° | 207 W/m² | - |
| 1778033308 | 10.56° C | 47% | 1006.8 hPa | 0 mm | 0 m/s | 229 W/m² | - |
| 1778033007 | 10.56° C | 47% | 1006.8 hPa | 0 mm | 1.34 m/s, 175° | 211 W/m² | - |
| 1778032704 | 10.56° C | 48% | 1006.6 hPa | 0 mm | 1.79 m/s, 1° | 191 W/m² | - |
| 1778032401 | 11.11° C | 47% | 1006.9 hPa | 0 mm | 1.79 m/s, 81° | 236 W/m² | - |
* Rain latest hour (hover to see other rain measurements)
** Current wind speed in m/s (hover to see current wind gust speed)